18 Max
12 km/h
6 Mini

LFMY 061730Z AUTO 20006KT CAVOK 22/14 Q1007 BECMG 20015G25KT

TAF LFMY 061400Z 0615/0715 20015G25KT 9999 SCT045 BECMG 0620/0622 VRB03KT TEMPO 0623/0706 RA FEW015 SCT030 OVC100 PROB30 TEMPO 0706/0713 28010KT 4000 SHRA SCT025CB BECMG 0713/0715 32015G25KT